createdAt,value
2023-04-18T00:01:26.297Z,20.73
2023-04-18T00:05:27.642Z,18.77
2023-04-18T00:09:28.777Z,20.03
2023-04-18T00:13:29.746Z,22.50
2023-04-18T00:17:32.255Z,22.80
2023-04-18T00:21:33.944Z,21.97
2023-04-18T00:25:35.083Z,27.40
2023-04-18T00:29:36.254Z,36.03
2023-04-18T00:33:37.221Z,25.63
2023-04-18T00:37:38.241Z,23.73
2023-04-18T00:41:39.373Z,23.07
2023-04-18T00:45:40.512Z,25.63
2023-04-18T00:49:42.978Z,23.23
2023-04-18T00:53:45.104Z,21.80
2023-04-18T00:57:46.626Z,22.80
2023-04-18T01:01:47.912Z,21.13
2023-04-18T01:10:52.738Z,22.60
2023-04-18T01:14:53.951Z,20.07
2023-04-18T01:18:56.333Z,21.67
2023-04-18T01:22:59.026Z,19.83
2023-04-18T01:27:01.911Z,21.60
2023-04-18T01:31:03.078Z,21.13
2023-04-18T01:35:04.727Z,19.77
2023-04-18T01:39:06.545Z,18.17
2023-04-18T01:43:07.630Z,17.80
2023-04-18T01:47:08.738Z,19.60
2023-04-18T01:51:09.848Z,19.20
2023-04-18T01:55:11.213Z,19.87
2023-04-18T01:59:12.588Z,19.87
2023-04-18T02:03:13.889Z,20.40
2023-04-18T02:07:15.232Z,20.33
2023-04-18T02:11:16.206Z,21.63
2023-04-18T02:15:17.444Z,20.97
2023-04-18T02:19:18.533Z,20.70
2023-04-18T02:23:19.499Z,21.17
2023-04-18T02:27:20.457Z,23.10
2023-04-18T02:31:21.641Z,20.83
2023-04-18T02:35:23.987Z,21.17
2023-04-18T02:39:25.104Z,21.80
2023-04-18T02:43:26.093Z,22.47
2023-04-18T02:47:27.260Z,23.07
2023-04-18T02:51:28.448Z,22.77
2023-04-18T02:55:29.402Z,24.37
2023-04-18T02:59:30.637Z,25.10
2023-04-18T03:03:31.749Z,26.20
2023-04-18T03:07:32.856Z,26.03
2023-04-18T03:11:33.986Z,26.33
2023-04-18T03:15:35.295Z,27.57
2023-04-18T03:19:36.623Z,27.73
2023-04-18T03:23:37.956Z,28.33
2023-04-18T03:27:39.071Z,29.13
2023-04-18T03:31:42.218Z,30.07
2023-04-18T03:35:43.487Z,31.30
2023-04-18T03:39:44.676Z,33.27
2023-04-18T03:43:45.708Z,31.07
2023-04-18T03:47:46.866Z,32.33
2023-04-18T03:51:48.061Z,32.47
2023-04-18T03:55:50.189Z,33.93
2023-04-18T03:59:51.321Z,32.57
2023-04-18T04:03:52.805Z,34.63
2023-04-18T04:07:54.172Z,32.03
2023-04-18T04:11:55.159Z,32.70
2023-04-18T04:15:56.638Z,30.77
2023-04-18T04:19:57.752Z,31.13
2023-04-18T04:23:58.943Z,32.53
2023-04-18T04:28:01.091Z,35.13
2023-04-18T04:32:03.146Z,34.67
2023-04-18T04:36:06.259Z,31.50
2023-04-18T04:40:08.586Z,33.80
2023-04-18T04:44:09.588Z,31.87
2023-04-18T04:48:10.809Z,31.83
2023-04-18T04:52:11.835Z,30.70
2023-04-18T04:56:12.966Z,29.97
2023-04-18T05:00:16.708Z,31.97
2023-04-18T05:04:18.502Z,29.03
2023-04-18T05:08:20.140Z,29.03
2023-04-18T05:12:21.157Z,29.10
2023-04-18T05:16:22.296Z,27.50
2023-04-18T05:20:23.924Z,26.53
2023-04-18T05:24:25.065Z,27.87
2023-04-18T05:28:26.959Z,25.97
2023-04-18T05:32:28.078Z,23.20
2023-04-18T05:36:29.099Z,24.17
2023-04-18T05:40:30.116Z,23.63
2023-04-18T05:44:31.301Z,24.53
2023-04-18T05:48:32.362Z,22.10
2023-04-18T05:52:33.603Z,19.80
2023-04-18T05:56:35.051Z,21.00
2023-04-18T06:00:36.225Z,21.67
2023-04-18T06:04:37.381Z,19.80
2023-04-18T06:08:39.491Z,21.13
2023-04-18T06:12:41.681Z,19.13
2023-04-18T06:16:42.869Z,17.63
2023-04-18T06:20:44.705Z,17.63
2023-04-18T06:24:45.786Z,15.60
2023-04-18T06:28:46.928Z,17.20
2023-04-18T06:32:47.965Z,14.47
2023-04-18T06:36:49.478Z,16.80
2023-04-18T06:40:50.443Z,16.73
2023-04-18T06:44:51.705Z,18.03
2023-04-18T06:48:52.667Z,15.90
2023-04-18T06:52:53.799Z,15.23
2023-04-18T06:56:55.400Z,15.10
2023-04-18T07:00:56.581Z,12.43
2023-04-18T07:04:57.578Z,13.37
2023-04-18T07:09:00.466Z,13.23
2023-04-18T07:13:01.416Z,13.13
2023-04-18T07:17:02.587Z,12.17
2023-04-18T07:21:05.878Z,14.07
2023-04-18T07:25:07.421Z,13.70
2023-04-18T07:29:08.672Z,13.57
2023-04-18T07:33:09.802Z,14.23
2023-04-18T07:37:14.675Z,16.00
2023-04-18T07:41:15.280Z,14.07
2023-04-18T07:45:17.320Z,14.30
2023-04-18T07:49:18.561Z,14.13
2023-04-18T07:53:19.953Z,15.60
2023-04-18T07:57:21.042Z,15.73
2023-04-18T08:01:23.974Z,15.13
2023-04-18T08:05:25.057Z,15.57
2023-04-18T08:09:26.400Z,16.90
2023-04-18T08:13:27.439Z,16.43
2023-04-18T08:18:02.660Z,13.80
2023-04-18T08:22:09.694Z,15.63
2023-04-18T08:26:10.681Z,15.20
2023-04-18T08:30:12.943Z,16.50
2023-04-18T09:04:10.402Z,16.10
2023-04-18T09:08:25.536Z,17.17
2023-04-18T09:12:28.893Z,17.90
2023-04-18T09:16:33.800Z,16.43
2023-04-18T09:20:39.391Z,15.97
2023-04-18T09:24:53.135Z,16.30
2023-04-18T09:28:54.118Z,15.83
2023-04-18T09:32:59.936Z,15.43
2023-04-18T09:37:10.128Z,15.30
2023-04-18T09:41:12.405Z,12.93
2023-04-18T09:45:14.826Z,14.63
2023-04-18T09:49:17.471Z,13.97
2023-04-18T09:53:21.060Z,14.17
2023-04-18T09:57:25.950Z,13.27
2023-04-18T10:01:28.054Z,12.27
2023-04-18T10:05:31.591Z,12.47
2023-04-18T10:09:33.853Z,12.73
2023-04-18T10:13:38.312Z,11.83
2023-04-18T10:18:02.600Z,11.20
2023-04-18T10:21:53.455Z,11.23
2023-04-18T10:25:54.829Z,11.00
2023-04-18T10:29:55.886Z,8.93
2023-04-18T10:34:04.544Z,10.60
2023-04-18T10:38:01.370Z,9.53
2023-04-18T10:42:02.586Z,10.60
2023-04-18T10:46:23.775Z,9.67
2023-04-18T10:50:14.555Z,7.57
2023-04-18T10:54:31.482Z,7.77
2023-04-18T10:58:33.886Z,8.60
2023-04-18T11:02:35.435Z,8.13
2023-04-18T11:06:49.811Z,9.30
2023-04-18T11:10:57.807Z,8.90
2023-04-18T11:15:03.423Z,8.20
2023-04-18T11:19:22.783Z,9.83
2023-04-18T11:23:24.446Z,8.60
2023-04-18T11:27:26.216Z,8.83
2023-04-18T11:31:27.247Z,8.67
2023-04-18T11:35:28.813Z,8.77
2023-04-18T11:39:35.841Z,8.90
2023-04-18T11:43:36.966Z,8.70
2023-04-18T11:47:41.118Z,9.40
2023-04-18T11:51:44.058Z,9.40
2023-04-18T11:55:48.889Z,10.20
2023-04-18T11:59:51.800Z,8.53
2023-04-18T12:04:07.486Z,8.93
2023-04-18T12:08:15.187Z,8.27
2023-04-18T12:12:18.473Z,8.17
2023-04-18T12:16:19.514Z,9.97
2023-04-18T12:20:22.498Z,9.07
2023-04-18T12:24:24.636Z,9.63
2023-04-18T12:28:27.691Z,8.97
2023-04-18T12:32:28.789Z,10.13
2023-04-18T12:36:30.233Z,10.83
2023-04-18T12:40:31.290Z,10.27
2023-04-18T12:44:32.477Z,9.97
2023-04-18T12:48:33.557Z,9.43
2023-04-18T12:52:36.978Z,10.27
2023-04-18T12:56:38.103Z,11.30
2023-04-18T13:00:39.350Z,10.93
2023-04-18T13:04:41.168Z,11.87
2023-04-18T13:08:42.373Z,11.80
2023-04-18T13:12:44.209Z,11.30
2023-04-18T13:16:46.006Z,14.87
2023-04-18T13:20:47.246Z,14.00
2023-04-18T13:24:48.356Z,13.87
2023-04-18T13:28:49.632Z,14.87
2023-04-18T13:32:50.611Z,15.83
2023-04-18T13:36:51.722Z,16.40
2023-04-18T13:41:04.421Z,16.67
2023-04-18T13:44:57.446Z,15.47
2023-04-18T13:48:58.439Z,17.23
2023-04-18T13:52:59.441Z,17.80
2023-04-18T13:57:02.587Z,17.13
2023-04-18T14:01:03.741Z,17.83
2023-04-18T14:05:05.720Z,18.17
2023-04-18T14:09:07.362Z,17.40
2023-04-18T14:13:08.358Z,18.03
2023-04-18T14:17:09.592Z,19.47
2023-04-18T14:21:10.821Z,19.40
2023-04-18T14:25:11.917Z,19.67
2023-04-18T14:29:13.840Z,16.47
2023-04-18T14:33:15.131Z,18.50
2023-04-18T14:37:17.555Z,17.47
2023-04-18T14:41:18.911Z,18.27
2023-04-18T14:45:19.989Z,16.87
2023-04-18T14:49:21.081Z,16.27
2023-04-18T14:53:22.553Z,17.60
2023-04-18T14:57:23.689Z,14.70
2023-04-18T15:01:24.856Z,16.27
2023-04-18T15:05:26.005Z,16.67
2023-04-18T15:09:26.997Z,14.97
2023-04-18T15:13:28.078Z,14.17
2023-04-18T15:17:29.312Z,12.77
2023-04-18T15:21:30.379Z,15.40
2023-04-18T15:25:31.700Z,14.63
2023-04-18T15:29:32.791Z,16.30
2023-04-18T15:33:33.945Z,11.70
2023-04-18T15:37:35.151Z,14.57
2023-04-18T15:41:36.544Z,14.70
2023-04-18T15:45:37.588Z,15.00
2023-04-18T15:49:38.620Z,12.50
2023-04-18T15:53:39.571Z,14.53
2023-04-18T15:57:41.138Z,13.83
2023-04-18T16:01:46.008Z,12.03
2023-04-18T16:05:47.653Z,11.47
2023-04-18T16:09:51.869Z,11.63
2023-04-18T16:13:55.704Z,12.20
2023-04-18T16:17:57.364Z,11.03
2023-04-18T16:21:58.390Z,11.73
2023-04-18T16:25:59.351Z,11.20
2023-04-18T16:30:00.423Z,10.87
2023-04-18T16:34:02.644Z,9.93
2023-04-18T16:38:03.650Z,10.27
2023-04-18T16:42:04.949Z,10.57
2023-04-18T16:46:06.094Z,10.73
2023-04-18T16:50:07.798Z,11.00
2023-04-18T16:54:08.798Z,10.23
2023-04-18T16:58:10.584Z,11.30
2023-04-18T17:02:11.780Z,11.53
2023-04-18T17:06:12.768Z,10.47
2023-04-18T17:10:13.825Z,10.23
2023-04-18T17:14:16.218Z,11.73
2023-04-18T17:18:17.282Z,9.63
2023-04-18T17:22:18.362Z,9.47
2023-04-18T17:26:19.750Z,9.77
2023-04-18T17:30:21.050Z,11.20
2023-04-18T17:34:22.132Z,11.87
2023-04-18T17:38:23.191Z,10.17
2023-04-18T17:42:24.229Z,10.67
2023-04-18T17:46:25.933Z,11.37
2023-04-18T17:50:27.104Z,10.13
2023-04-18T17:54:28.095Z,11.27
2023-04-18T17:58:29.126Z,10.93
2023-04-18T18:02:30.158Z,11.80
2023-04-18T18:06:31.315Z,11.60
2023-04-18T18:10:32.779Z,11.47
2023-04-18T18:14:33.805Z,12.57
2023-04-18T18:18:35.965Z,11.77
2023-04-18T18:22:37.056Z,11.50
2023-04-18T18:26:38.387Z,12.57
2023-04-18T18:30:39.821Z,13.80
2023-04-18T18:34:40.892Z,14.07
2023-04-18T18:38:41.885Z,13.73
2023-04-18T18:42:43.045Z,12.90
2023-04-18T18:46:44.099Z,12.47
2023-04-18T18:50:45.053Z,13.47
2023-04-18T18:54:46.139Z,14.10
2023-04-18T18:58:47.321Z,11.93
2023-04-18T19:02:48.421Z,15.90
2023-04-18T19:06:49.617Z,12.90
2023-04-18T19:10:50.740Z,14.10
2023-04-18T19:14:51.756Z,14.47
2023-04-18T19:18:52.870Z,13.40
2023-04-18T19:22:54.201Z,15.47
2023-04-18T19:26:55.156Z,14.53
2023-04-18T19:30:56.441Z,14.23
2023-04-18T19:34:58.821Z,12.83
2023-04-18T19:38:59.778Z,13.10
2023-04-18T19:43:00.787Z,12.83
2023-04-18T19:47:01.936Z,13.87
2023-04-18T19:51:04.058Z,14.03
2023-04-18T19:55:05.903Z,13.97
2023-04-18T19:59:07.043Z,15.50
2023-04-18T20:03:08.208Z,13.70
2023-04-18T20:07:09.400Z,13.37
2023-04-18T20:11:13.147Z,13.97
2023-04-18T20:15:14.406Z,11.60
2023-04-18T20:19:17.352Z,12.43
2023-04-18T20:23:18.833Z,11.50
2023-04-18T20:27:20.173Z,11.93
2023-04-18T20:31:21.321Z,10.63
2023-04-18T20:35:22.729Z,10.53
2023-04-18T20:39:23.859Z,11.07
2023-04-18T20:43:25.350Z,10.10
2023-04-18T20:47:27.164Z,9.73
2023-04-18T20:51:29.125Z,9.33
2023-04-18T20:55:30.476Z,10.23
2023-04-18T20:59:31.514Z,10.57
2023-04-18T21:03:32.690Z,11.87
2023-04-18T21:07:35.100Z,11.40
2023-04-18T21:11:36.098Z,13.07
2023-04-18T21:15:37.748Z,12.80
2023-04-18T21:19:38.724Z,10.33
2023-04-18T21:23:43.388Z,10.73
2023-04-18T21:27:44.367Z,9.87
2023-04-18T21:31:46.626Z,9.93
2023-04-18T21:35:47.902Z,9.13
2023-04-18T21:39:49.124Z,11.47
2023-04-18T21:43:50.864Z,8.77
2023-04-18T21:47:52.057Z,8.87
2023-04-18T21:51:54.243Z,9.73
2023-04-18T21:55:55.281Z,8.80
2023-04-18T21:59:57.413Z,8.53
2023-04-18T22:03:58.582Z,8.63
2023-04-18T22:08:00.352Z,7.97
2023-04-18T22:12:03.109Z,8.10
2023-04-18T22:16:04.937Z,7.83
2023-04-18T22:20:08.274Z,8.37
2023-04-18T22:24:09.429Z,9.23
2023-04-18T22:28:10.853Z,8.70
2023-04-18T22:32:12.170Z,9.17
2023-04-18T22:36:13.263Z,9.27
2023-04-18T22:40:15.724Z,8.80
2023-04-18T22:44:17.002Z,8.83
2023-04-18T22:48:18.209Z,9.30
2023-04-18T22:52:19.972Z,9.23
2023-04-18T22:56:21.143Z,9.67
2023-04-18T23:00:22.123Z,8.63
2023-04-18T23:04:23.316Z,8.70
2023-04-18T23:08:24.938Z,10.37
2023-04-18T23:12:26.261Z,11.27
2023-04-18T23:16:27.886Z,11.07
2023-04-18T23:20:29.066Z,13.40
2023-04-18T23:24:31.066Z,12.83
2023-04-18T23:28:32.502Z,13.90
2023-04-18T23:32:33.502Z,14.90
2023-04-18T23:36:34.865Z,15.33
2023-04-18T23:40:35.831Z,15.73
2023-04-18T23:44:37.099Z,14.60
2023-04-18T23:48:38.222Z,16.67
2023-04-18T23:52:39.873Z,16.37
2023-04-18T23:56:41.112Z,17.07
